Preview of NWS' New Version of Forecast
This preview is not operational and should not be used for support decisions.

Terminal Aerodrome Forecast (TAF)

Issued by National Weather Service (NWS)

                            
000
FTUS46 KSEW 211123
TAFBLI
TAF
KBLI 211123Z 2112/2212 17008KT P6SM BKN090 OVC150
     FM211600 15008KT P6SM -RA SCT030 OVC070
     FM212100 18010KT P6SM -SHRA BKN020 OVC040
     FM220200 17008KT P6SM BKN030 BKN050=